createdAt,value
2017-09-06T00:01:07.624Z,70.13
2017-09-06T00:03:37.290Z,70.58
2017-09-06T00:06:06.352Z,70.69
2017-09-06T00:08:34.940Z,70.41
2017-09-06T00:11:03.588Z,69.99
2017-09-06T00:13:32.284Z,69.67
2017-09-06T00:16:00.651Z,69.88
2017-09-06T00:18:30.442Z,71.09
2017-09-06T00:20:59.476Z,71.00
2017-09-06T00:23:28.752Z,71.04
2017-09-06T00:25:58.268Z,71.49
2017-09-06T00:28:26.663Z,70.58
2017-09-06T00:30:55.080Z,70.24
2017-09-06T00:33:23.855Z,69.75
2017-09-06T00:35:52.267Z,69.17
2017-09-06T00:38:20.635Z,69.31
2017-09-06T00:40:49.741Z,69.16
2017-09-06T00:43:18.140Z,69.69
2017-09-06T00:45:46.527Z,69.87
2017-09-06T00:48:15.477Z,69.73
2017-09-06T00:50:43.857Z,69.42
2017-09-06T00:53:12.259Z,69.48
2017-09-06T00:55:41.747Z,69.29
2017-09-06T00:58:11.762Z,70.01
2017-09-06T01:00:40.150Z,69.81
2017-09-06T01:03:09.251Z,70.02
2017-09-06T01:05:37.600Z,70.33
2017-09-06T01:08:05.963Z,70.57
2017-09-06T01:10:35.264Z,71.16
2017-09-06T01:13:03.616Z,70.79
2017-09-06T01:15:32.875Z,71.60
2017-09-06T01:18:01.555Z,71.68
2017-09-06T01:20:30.692Z,71.73
2017-09-06T01:22:59.887Z,72.54
2017-09-06T01:25:28.923Z,72.07
2017-09-06T01:27:57.305Z,71.79
2017-09-06T01:30:25.718Z,72.17
2017-09-06T01:32:54.472Z,71.89
2017-09-06T01:35:22.879Z,72.07
2017-09-06T01:37:51.462Z,71.71
2017-09-06T01:40:20.115Z,71.58
2017-09-06T01:42:49.467Z,71.93
2017-09-06T01:45:18.386Z,72.71
2017-09-06T01:47:47.719Z,72.63
2017-09-06T01:50:16.326Z,72.51
2017-09-06T01:52:44.727Z,73.08
2017-09-06T01:55:14.129Z,73.55
2017-09-06T01:57:42.500Z,73.87
2017-09-06T02:00:10.864Z,73.68
2017-09-06T02:02:39.518Z,73.86
2017-09-06T02:05:07.885Z,73.84
2017-09-06T02:07:36.280Z,74.34
2017-09-06T02:10:05.341Z,74.64
2017-09-06T02:12:33.766Z,73.97
2017-09-06T02:15:03.605Z,73.35
2017-09-06T02:17:32.462Z,75.05
2017-09-06T02:20:01.133Z,75.37
2017-09-06T02:22:30.281Z,75.41
2017-09-06T02:24:59.258Z,75.19
2017-09-06T02:27:27.693Z,74.35
2017-09-06T02:29:57.046Z,73.96
2017-09-06T02:32:26.979Z,73.62
2017-09-06T02:34:55.406Z,73.78
2017-09-06T02:37:25.277Z,72.66
2017-09-06T02:39:53.963Z,72.57
2017-09-06T02:42:22.336Z,73.39
2017-09-06T02:44:50.751Z,72.81
2017-09-06T02:47:19.438Z,73.09
2017-09-06T02:49:48.358Z,72.39
2017-09-06T02:52:16.790Z,71.95
2017-09-06T02:54:45.654Z,72.05
2017-09-06T02:57:14.756Z,71.78
2017-09-06T02:59:43.153Z,72.23
2017-09-06T03:02:12.533Z,72.52
2017-09-06T03:04:41.032Z,72.36
2017-09-06T03:07:10.659Z,72.36
2017-09-06T03:09:39.410Z,72.58
2017-09-06T03:12:07.787Z,73.26
2017-09-06T03:14:36.162Z,73.42
2017-09-06T03:17:05.618Z,73.72
2017-09-06T03:19:34.754Z,73.46
2017-09-06T03:22:03.703Z,73.97
2017-09-06T03:24:32.350Z,74.74
2017-09-06T03:27:02.018Z,74.43
2017-09-06T03:29:30.654Z,74.54
2017-09-06T03:31:59.291Z,74.49
2017-09-06T03:34:28.432Z,74.47
2017-09-06T03:36:56.849Z,75.95
2017-09-06T03:39:26.532Z,75.85
2017-09-06T03:41:54.905Z,75.63
2017-09-06T03:44:23.360Z,75.81
2017-09-06T03:46:53.032Z,75.86
2017-09-06T03:49:21.463Z,75.38
2017-09-06T03:51:49.858Z,75.77
2017-09-06T03:54:18.581Z,76.99
2017-09-06T03:56:46.952Z,78.14
2017-09-06T03:59:15.319Z,77.98
2017-09-06T04:01:45.173Z,78.41
2017-09-06T04:04:14.323Z,78.73
2017-09-06T04:06:42.922Z,78.84
2017-09-06T04:09:11.605Z,78.62
2017-09-06T04:11:40.780Z,79.17
2017-09-06T04:14:09.131Z,79.24
2017-09-06T04:16:38.050Z,79.73
2017-09-06T04:19:06.424Z,79.68
2017-09-06T04:21:34.773Z,81.06
2017-09-06T04:24:03.429Z,81.20
2017-09-06T04:26:32.473Z,81.18
2017-09-06T04:29:00.858Z,81.27
2017-09-06T04:31:29.524Z,80.44
2017-09-06T04:33:57.903Z,80.59
2017-09-06T04:36:26.690Z,81.21
2017-09-06T04:38:55.608Z,81.23
2017-09-06T04:41:24.023Z,80.44
2017-09-06T04:43:52.380Z,79.88
2017-09-06T04:46:21.174Z,79.88
2017-09-06T04:48:50.467Z,80.04
2017-09-06T04:51:18.821Z,79.87
2017-09-06T04:53:47.536Z,79.54
2017-09-06T04:56:15.898Z,79.55
2017-09-06T04:58:44.272Z,79.49
2017-09-06T05:01:12.954Z,79.45
2017-09-06T05:03:41.316Z,80.10
2017-09-06T05:06:10.449Z,80.29
2017-09-06T05:08:39.424Z,80.39
2017-09-06T05:11:08.564Z,80.54
2017-09-06T05:13:37.040Z,79.02
2017-09-06T05:16:06.697Z,79.87
2017-09-06T05:18:35.048Z,79.63
2017-09-06T05:21:03.427Z,79.67
2017-09-06T05:23:32.120Z,79.90
2017-09-06T05:26:01.261Z,80.23
2017-09-06T05:28:29.642Z,79.84
2017-09-06T05:30:58.899Z,80.01
2017-09-06T05:33:28.028Z,79.79
2017-09-06T05:35:56.695Z,79.71
2017-09-06T05:38:25.374Z,79.27
2017-09-06T05:40:54.487Z,79.83
2017-09-06T05:43:22.833Z,79.73
2017-09-06T05:45:51.517Z,79.37
2017-09-06T05:48:19.900Z,79.09
2017-09-06T05:50:48.787Z,79.33
2017-09-06T05:53:17.654Z,79.41
2017-09-06T05:55:47.501Z,79.27
2017-09-06T05:58:15.872Z,79.38
2017-09-06T06:00:44.708Z,79.24
2017-09-06T06:03:13.565Z,79.40
2017-09-06T06:05:41.955Z,78.77
2017-09-06T06:08:12.594Z,78.92
2017-09-06T06:10:41.244Z,78.57
2017-09-06T06:13:10.460Z,78.72
2017-09-06T06:15:40.885Z,78.60
2017-09-06T06:18:09.304Z,79.20
2017-09-06T06:20:37.692Z,78.80
2017-09-06T06:23:06.344Z,79.00
2017-09-06T06:25:34.725Z,78.51
2017-09-06T06:28:03.080Z,78.02
2017-09-06T06:30:31.728Z,77.46
2017-09-06T06:33:00.074Z,76.91
2017-09-06T06:35:29.205Z,77.92
2017-09-06T06:37:58.068Z,77.14
2017-09-06T06:40:26.419Z,76.62
2017-09-06T06:42:54.865Z,75.72
2017-09-06T06:45:24.543Z,75.84
2017-09-06T06:47:53.603Z,74.82
2017-09-06T06:50:21.987Z,74.37
2017-09-06T06:52:50.723Z,73.81
2017-09-06T06:55:19.174Z,73.77
2017-09-06T06:57:47.554Z,74.22
2017-09-06T07:00:17.144Z,72.69
2017-09-06T07:02:46.286Z,71.71
2017-09-06T07:05:15.780Z,70.76
2017-09-06T07:07:44.429Z,68.51
2017-09-06T07:10:12.790Z,68.54
2017-09-06T07:12:41.142Z,69.20
2017-09-06T07:15:10.044Z,69.09
2017-09-06T07:17:38.432Z,68.73
2017-09-06T07:20:06.777Z,69.02
2017-09-06T07:22:35.475Z,70.07
2017-09-06T07:25:04.596Z,71.01
2017-09-06T07:27:33.664Z,70.21
2017-09-06T07:30:03.144Z,68.19
2017-09-06T07:32:31.498Z,64.97
2017-09-06T07:35:00.530Z,65.31
2017-09-06T07:37:29.225Z,64.94
2017-09-06T07:39:57.623Z,67.05
2017-09-06T07:42:26.557Z,65.82
2017-09-06T07:44:56.906Z,65.55
2017-09-06T07:47:26.020Z,65.28
2017-09-06T07:49:54.449Z,67.57
2017-09-06T07:52:23.142Z,68.59
2017-09-06T07:54:52.298Z,68.56
2017-09-06T07:57:20.933Z,67.26
2017-09-06T07:59:50.403Z,67.01
2017-09-06T08:02:19.015Z,68.12
2017-09-06T08:04:47.407Z,68.53
2017-09-06T08:07:16.308Z,67.49
2017-09-06T08:09:44.683Z,60.89
2017-09-06T08:12:13.054Z,54.47
2017-09-06T08:14:41.849Z,50.86
2017-09-06T08:17:10.200Z,50.17
2017-09-06T08:19:39.402Z,49.04
2017-09-06T08:22:08.115Z,45.69
2017-09-06T08:24:37.213Z,47.54
2017-09-06T08:27:05.652Z,47.31
2017-09-06T08:29:35.103Z,50.44
2017-09-06T08:32:03.516Z,52.55
2017-09-06T08:34:32.654Z,49.34
2017-09-06T08:37:05.857Z,48.25
2017-09-06T08:39:34.330Z,47.83
2017-09-06T08:42:02.715Z,45.33
2017-09-06T08:44:31.384Z,40.32
2017-09-06T08:47:00.452Z,37.23
2017-09-06T08:49:28.854Z,38.14
2017-09-06T08:51:58.648Z,39.62
2017-09-06T08:54:28.499Z,36.26
2017-09-06T08:56:57.599Z,38.06
2017-09-06T08:59:27.334Z,45.80
2017-09-06T09:01:55.674Z,46.75
2017-09-06T09:04:24.023Z,50.79
2017-09-06T09:06:52.769Z,48.00
2017-09-06T09:09:21.149Z,47.93
2017-09-06T09:11:49.503Z,47.42
2017-09-06T09:14:18.290Z,45.75
2017-09-06T09:16:47.416Z,46.38
2017-09-06T09:19:16.139Z,46.53
2017-09-06T09:21:44.898Z,46.24
2017-09-06T09:24:13.438Z,48.60
2017-09-06T09:26:41.990Z,49.54
2017-09-06T09:29:10.668Z,52.42
2017-09-06T09:31:39.914Z,53.15
2017-09-06T09:34:08.321Z,54.07
2017-09-06T09:36:37.082Z,54.35
2017-09-06T09:39:05.501Z,53.66
2017-09-06T09:41:33.894Z,55.90
2017-09-06T09:44:03.497Z,58.02
2017-09-06T09:46:33.375Z,57.74
2017-09-06T09:49:02.482Z,57.11
2017-09-06T09:51:32.015Z,56.21
2017-09-06T09:54:00.373Z,56.79
2017-09-06T09:56:28.744Z,56.34
2017-09-06T09:58:58.086Z,58.42
2017-09-06T10:01:26.434Z,57.46
2017-09-06T10:03:54.781Z,57.73
2017-09-06T10:06:23.407Z,58.59
2017-09-06T10:08:52.642Z,59.49
2017-09-06T10:11:21.958Z,59.42
2017-09-06T10:13:50.635Z,58.48
2017-09-06T10:16:19.124Z,59.12
2017-09-06T10:18:47.511Z,60.16
2017-09-06T10:21:16.674Z,61.27
2017-09-06T10:23:45.079Z,61.80
2017-09-06T10:26:14.013Z,62.90
2017-09-06T10:28:43.790Z,62.00
2017-09-06T10:31:12.748Z,60.27
2017-09-06T10:33:41.137Z,57.58
2017-09-06T10:36:10.022Z,56.87
2017-09-06T10:38:38.735Z,55.21
2017-09-06T10:41:07.110Z,54.51
2017-09-06T10:43:36.814Z,55.57
2017-09-06T10:46:05.660Z,55.50
2017-09-06T10:48:34.022Z,54.31
2017-09-06T10:51:03.516Z,53.19
2017-09-06T10:53:31.932Z,51.80
2017-09-06T10:56:00.304Z,54.75
2017-09-06T10:58:29.875Z,55.39
2017-09-06T11:00:59.067Z,54.85
2017-09-06T11:03:28.324Z,54.51
2017-09-06T11:05:58.139Z,52.85
2017-09-06T11:08:26.518Z,50.82
2017-09-06T11:10:54.889Z,50.25
2017-09-06T11:13:24.510Z,50.31
2017-09-06T11:15:53.209Z,52.81
2017-09-06T11:18:21.573Z,55.42
2017-09-06T11:20:50.327Z,50.68
2017-09-06T11:23:18.917Z,48.00
2017-09-06T11:25:47.714Z,50.34
2017-09-06T11:28:16.699Z,54.18
2017-09-06T11:30:45.722Z,53.91
2017-09-06T11:33:14.085Z,56.46
2017-09-06T11:35:43.426Z,56.55
2017-09-06T11:38:11.815Z,57.78
2017-09-06T11:40:40.181Z,58.85
2017-09-06T11:43:09.087Z,59.10
2017-09-06T11:45:37.464Z,58.55
2017-09-06T11:48:06.567Z,59.00
2017-09-06T11:50:36.033Z,57.90
2017-09-06T11:53:04.968Z,59.09
2017-09-06T11:55:33.654Z,58.70
2017-09-06T11:58:02.316Z,59.17
2017-09-06T12:00:30.702Z,59.49
2017-09-06T12:02:59.176Z,61.02
2017-09-06T12:05:28.878Z,62.96
2017-09-06T12:07:57.233Z,67.81
2017-09-06T12:10:25.580Z,72.58
2017-09-06T12:12:54.381Z,73.83
2017-09-06T12:15:24.254Z,73.01
2017-09-06T12:17:52.605Z,73.82
2017-09-06T12:20:21.598Z,73.25
2017-09-06T12:22:50.163Z,73.24
2017-09-06T12:25:19.336Z,72.00
2017-09-06T12:27:48.915Z,71.91
2017-09-06T12:30:17.267Z,71.98
2017-09-06T12:32:45.622Z,71.12
2017-09-06T12:35:14.310Z,71.65
2017-09-06T12:37:42.660Z,71.12
2017-09-06T12:40:11.026Z,70.55
2017-09-06T12:42:40.318Z,70.77
2017-09-06T12:45:08.661Z,70.87
2017-09-06T12:47:37.003Z,71.62
2017-09-06T12:50:05.634Z,71.64
2017-09-06T12:52:33.970Z,72.71
2017-09-06T12:55:02.314Z,72.25
2017-09-06T12:57:31.996Z,72.31
2017-09-06T13:00:00.360Z,71.64
2017-09-06T13:02:29.532Z,72.72
2017-09-06T13:04:59.233Z,73.04
2017-09-06T13:07:28.133Z,73.00
2017-09-06T13:09:56.614Z,71.33
2017-09-06T13:12:27.291Z,71.48
2017-09-06T13:14:56.204Z,70.39
2017-09-06T13:17:24.681Z,68.70
2017-09-06T13:19:53.563Z,69.24
2017-09-06T13:22:21.899Z,67.85
2017-09-06T13:24:52.205Z,69.00
2017-09-06T13:27:20.862Z,69.32
2017-09-06T13:29:49.243Z,71.67
2017-09-06T13:32:18.498Z,72.06
2017-09-06T13:34:47.885Z,72.11
2017-09-06T13:37:16.232Z,72.98
2017-09-06T13:39:44.626Z,72.15
2017-09-06T13:42:13.555Z,71.73
2017-09-06T13:44:42.074Z,73.28
2017-09-06T13:47:11.326Z,72.18
2017-09-06T13:49:40.051Z,72.32
2017-09-06T13:52:09.194Z,70.97
2017-09-06T13:54:37.933Z,70.79
2017-09-06T13:57:08.493Z,71.63
2017-09-06T13:59:37.896Z,71.64
2017-09-06T14:02:07.015Z,71.45
2017-09-06T14:04:36.331Z,72.78
2017-09-06T14:07:05.452Z,72.42
2017-09-06T14:09:33.855Z,73.74
2017-09-06T14:12:03.875Z,73.35
2017-09-06T14:14:32.466Z,73.91
2017-09-06T14:17:02.165Z,73.29
2017-09-06T14:19:31.059Z,74.78
2017-09-06T14:22:00.330Z,74.22
2017-09-06T14:24:29.044Z,73.87
2017-09-06T14:26:59.152Z,72.41
2017-09-06T14:29:28.297Z,72.06
2017-09-06T14:31:57.932Z,71.60
2017-09-06T14:34:26.607Z,71.07
2017-09-06T14:36:55.178Z,70.63
2017-09-06T14:39:24.429Z,70.27
2017-09-06T14:41:53.353Z,70.91
2017-09-06T14:44:21.745Z,68.91
2017-09-06T14:46:50.096Z,68.76
2017-09-06T14:49:19.599Z,69.76
2017-09-06T14:51:47.981Z,68.90
2017-09-06T14:54:16.381Z,68.44
2017-09-06T14:56:45.255Z,68.44
2017-09-06T14:59:15.243Z,67.12
2017-09-06T15:01:43.663Z,67.59
2017-09-06T15:04:12.488Z,67.07
2017-09-06T15:06:40.861Z,67.45
2017-09-06T15:09:09.648Z,67.43
2017-09-06T15:11:38.805Z,65.70
2017-09-06T15:14:07.690Z,66.19
2017-09-06T15:16:36.062Z,65.19
2017-09-06T15:19:04.790Z,65.00
2017-09-06T15:21:34.154Z,65.33
2017-09-06T15:24:02.490Z,64.75
2017-09-06T15:26:31.342Z,64.25
2017-09-06T15:28:59.691Z,64.58
2017-09-06T15:31:28.612Z,65.43
2017-09-06T15:33:57.505Z,65.30
2017-09-06T15:36:25.948Z,65.12
2017-09-06T15:38:54.326Z,64.58
2017-09-06T15:41:23.737Z,64.21
2017-09-06T15:43:52.854Z,64.65
2017-09-06T15:46:22.661Z,65.17
2017-09-06T15:48:51.255Z,65.27
2017-09-06T15:51:19.610Z,65.60
2017-09-06T15:53:47.960Z,66.08
2017-09-06T15:56:16.894Z,66.75
2017-09-06T15:58:45.255Z,66.04
2017-09-06T16:01:14.341Z,66.32
2017-09-06T16:03:43.471Z,65.66
2017-09-06T16:06:13.710Z,66.53
2017-09-06T16:08:42.071Z,66.83
2017-09-06T16:11:11.167Z,66.14
2017-09-06T16:13:39.614Z,66.50
2017-09-06T16:16:07.974Z,66.15
2017-09-06T16:18:37.957Z,65.54
2017-09-06T16:21:06.325Z,65.43
2017-09-06T16:23:34.676Z,64.04
2017-09-06T16:26:03.733Z,63.37
2017-09-06T16:28:32.093Z,63.65
2017-09-06T16:31:01.201Z,64.15
2017-09-06T16:33:30.712Z,63.82
2017-09-06T16:35:59.148Z,62.68
2017-09-06T16:38:28.477Z,62.04
2017-09-06T16:40:58.298Z,62.02
2017-09-06T16:43:26.662Z,61.42
2017-09-06T16:45:55.866Z,61.07
2017-09-06T16:48:24.603Z,61.39
